Climax, Minnesota
Current Conditions -  °F | °C
As of 11:54 AM on Saturday 25 Oct 2014 (Local Time) from KCKN Reporting Station
Clear Clear  
Wind Chill: 55°   Ceiling: Unl
Heat Index: 55°   Visibility: 10mi
Dew Point: 28°   Wind: 21mph
Humidity: 36%   Direction: 330°NNW
Pressure: 30.08"   Gusts: 26mph
Location:  47.61°N, 96.82°W
Report Text: KCKN 251654Z AUTO 33018G23KT 10SM CLR 13/M02 A3008 RMK AO2
Loading
Personal Weather Stations






























Interactive Weather Map
Tropical Storm Tracking
New forecast layout! Learn more

10-Day Weather Forecast

Advertisements
Track Severe Weather on mobile